This is the latest recevied weather packets stored in our database for station/object AE5HO. If no packets are shown the sender has not sent any weather packets the latest 1 day(s).
| Time | Temp. | Humidity | Pressure | Rain* | Wind** | Luminosity | Snow |
|---|---|---|---|---|---|---|---|
| 1778012447 | 32.22° C | 59% | 1004.8 hPa | 0 mm | 0.89 m/s, 270° | 82 W/m² | - |
| 1778012144 | 31.67° C | 60% | 1004.6 hPa | 0 mm | 1.34 m/s, 270° | 64 W/m² | - |
| 1778011842 | 31.67° C | 59% | 1004.7 hPa | 0 mm | 0.89 m/s, 270° | 56 W/m² | - |
| 1778011539 | 31.11° C | 61% | 1004.8 hPa | 0 mm | 0.89 m/s, 286° | 64 W/m² | - |
| 1778011236 | 31.11° C | 59% | 1004.9 hPa | 0 mm | 1.34 m/s, 246° | 78 W/m² | - |
| 1778010932 | 31.11° C | 61% | 1004.7 hPa | 0 mm | 0 m/s | 83 W/m² | - |
| 1778010630 | 31.11° C | 62% | 1004.5 hPa | 0 mm | 0 m/s | 70 W/m² | - |
| 1778010327 | 30.56° C | 63% | 1004.8 hPa | 0 mm | 0.45 m/s, 294° | 87 W/m² | - |
| 1778010022 | 30.56° C | 62% | 1004.8 hPa | 0 mm | 0 m/s | 84 W/m² | - |
| 1778009720 | 30.56° C | 62% | 1004.7 hPa | 0 mm | 0.45 m/s, 306° | 88 W/m² | - |
| 1778009417 | 30.56° C | 63% | 1004.9 hPa | 0 mm | 0 m/s | 106 W/m² | - |
| 1778009115 | 30.56° C | 64% | 1005 hPa | 0 mm | 0 m/s | 104 W/m² | - |
| 1778008812 | 30.56° C | 64% | 1004.8 hPa | 0 mm | 0.89 m/s, 236° | 84 W/m² | - |
| 1778008510 | 30° C | 64% | 1005 hPa | 0 mm | 1.34 m/s, 270° | 83 W/m² | - |
| 1778008208 | 30° C | 66% | 1004.8 hPa | 0 mm | 0.89 m/s, 253° | 84 W/m² | - |
| 1778007903 | 29.44° C | 66% | 1004.6 hPa | 0 mm | 0.45 m/s, 262° | 84 W/m² | - |
| 1778007598 | 29.44° C | 66% | 1004.7 hPa | 0 mm | 0.89 m/s, 201° | 127 W/m² | - |
| 1778007296 | 29.44° C | 67% | 1004.8 hPa | 0 mm | 2.24 m/s, 255° | 148 W/m² | - |
| 1778006992 | 29.44° C | 67% | 1004.8 hPa | 0 mm | 0 m/s | 153 W/m² | - |
| 1778006689 | 29.44° C | 68% | 1004.8 hPa | 0 mm | 0 m/s | 166 W/m² | - |
| 1778006385 | 28.89° C | 68% | 1005 hPa | 0 mm | 0.89 m/s, 265° | 198 W/m² | - |
| 1778006082 | 28.89° C | 69% | 1005 hPa | 0 mm | 0 m/s | 201 W/m² | - |
| 1778005779 | 28.89° C | 69% | 1005.3 hPa | 0 mm | 1.34 m/s, 262° | 208 W/m² | - |
| 1778005476 | 28.33° C | 69% | 1005.1 hPa | 0 mm | 1.34 m/s, 216° | 196 W/m² | - |
| 1778005172 | 28.89° C | 69% | 1005 hPa | 0 mm | 0.89 m/s, 201° | 196 W/m² | - |
* Rain latest hour (hover to see other rain measurements)
** Current wind speed in m/s (hover to see current wind gust speed)